sensor_id;sensor_type;location;lat;lon;timestamp;pressure;altitude;pressure_sealevel;temperature
75428;BMP280;64008;55.612;37.698;2023-09-30T00:00:25;100067.03;;;21.48
75428;BMP280;64008;55.612;37.698;2023-09-30T00:02:51;100065.88;;;21.54
75428;BMP280;64008;55.612;37.698;2023-09-30T00:05:17;100078.00;;;21.18
75428;BMP280;64008;55.612;37.698;2023-09-30T00:07:45;100062.47;;;21.48
75428;BMP280;64008;55.612;37.698;2023-09-30T00:10:11;100061.69;;;21.75
75428;BMP280;64008;55.612;37.698;2023-09-30T00:12:36;100059.59;;;21.72
75428;BMP280;64008;55.612;37.698;2023-09-30T00:15:02;100067.28;;;21.65
75428;BMP280;64008;55.612;37.698;2023-09-30T00:17:29;100067.97;;;21.57
75428;BMP280;64008;55.612;37.698;2023-09-30T00:19:55;100069.19;;;20.80
75428;BMP280;64008;55.612;37.698;2023-09-30T00:22:20;100065.72;;;19.64
75428;BMP280;64008;55.612;37.698;2023-09-30T00:24:46;100064.59;;;19.36
75428;BMP280;64008;55.612;37.698;2023-09-30T00:27:12;100059.97;;;19.13
75428;BMP280;64008;55.612;37.698;2023-09-30T00:29:37;100061.06;;;19.12
75428;BMP280;64008;55.612;37.698;2023-09-30T00:32:03;100049.41;;;18.92
75428;BMP280;64008;55.612;37.698;2023-09-30T00:34:32;100056.94;;;18.80
75428;BMP280;64008;55.612;37.698;2023-09-30T00:36:58;100059.59;;;18.85
75428;BMP280;64008;55.612;37.698;2023-09-30T00:39:23;100049.53;;;18.67
75428;BMP280;64008;55.612;37.698;2023-09-30T00:41:52;100053.59;;;18.59
75428;BMP280;64008;55.612;37.698;2023-09-30T00:44:18;100046.09;;;18.56
75428;BMP280;64008;55.612;37.698;2023-09-30T00:46:43;100051.72;;;18.54
75428;BMP280;64008;55.612;37.698;2023-09-30T00:49:10;100052.03;;;18.43
75428;BMP280;64008;55.612;37.698;2023-09-30T00:51:38;100054.22;;;18.41
75428;BMP280;64008;55.612;37.698;2023-09-30T00:54:04;100054.75;;;18.27
75428;BMP280;64008;55.612;37.698;2023-09-30T00:56:31;100047.81;;;18.36
75428;BMP280;64008;55.612;37.698;2023-09-30T00:58:57;100047.75;;;18.42
75428;BMP280;64008;55.612;37.698;2023-09-30T01:01:23;100042.19;;;18.33
75428;BMP280;64008;55.612;37.698;2023-09-30T01:03:49;100044.06;;;18.32
75428;BMP280;64008;55.612;37.698;2023-09-30T01:06:14;100046.00;;;18.22
75428;BMP280;64008;55.612;37.698;2023-09-30T01:08:40;100045.47;;;18.04
75428;BMP280;64008;55.612;37.698;2023-09-30T01:11:07;100039.53;;;18.28
75428;BMP280;64008;55.612;37.698;2023-09-30T01:13:37;100042.81;;;17.99
75428;BMP280;64008;55.612;37.698;2023-09-30T01:16:07;100044.22;;;17.61
75428;BMP280;64008;55.612;37.698;2023-09-30T01:18:35;100031.38;;;17.32
75428;BMP280;64008;55.612;37.698;2023-09-30T01:21:05;100039.94;;;17.44
75428;BMP280;64008;55.612;37.698;2023-09-30T01:23:31;100042.06;;;17.27
75428;BMP280;64008;55.612;37.698;2023-09-30T01:25:57;100036.44;;;17.18
75428;BMP280;64008;55.612;37.698;2023-09-30T01:28:24;100047.88;;;16.93
75428;BMP280;64008;55.612;37.698;2023-09-30T01:30:49;100045.25;;;17.29
75428;BMP280;64008;55.612;37.698;2023-09-30T01:33:16;100038.63;;;17.47
75428;BMP280;64008;55.612;37.698;2023-09-30T01:35:44;100047.69;;;17.66
75428;BMP280;64008;55.612;37.698;2023-09-30T01:38:10;100042.34;;;17.66
75428;BMP280;64008;55.612;37.698;2023-09-30T01:40:35;100042.91;;;17.58
75428;BMP280;64008;55.612;37.698;2023-09-30T01:43:03;100035.13;;;17.67
75428;BMP280;64008;55.612;37.698;2023-09-30T01:45:28;100035.38;;;17.65
75428;BMP280;64008;55.612;37.698;2023-09-30T01:47:54;100030.59;;;17.78
75428;BMP280;64008;55.612;37.698;2023-09-30T01:50:19;100033.50;;;17.35
75428;BMP280;64008;55.612;37.698;2023-09-30T01:52:45;100039.13;;;17.59
75428;BMP280;64008;55.612;37.698;2023-09-30T01:55:11;100035.66;;;17.43
75428;BMP280;64008;55.612;37.698;2023-09-30T01:57:36;100036.72;;;17.32
75428;BMP280;64008;55.612;37.698;2023-09-30T02:00:02;100027.13;;;17.46
75428;BMP280;64008;55.612;37.698;2023-09-30T02:02:28;100034.34;;;17.46
75428;BMP280;64008;55.612;37.698;2023-09-30T02:04:53;100030.59;;;17.42
75428;BMP280;64008;55.612;37.698;2023-09-30T02:07:19;100024.44;;;17.41
75428;BMP280;64008;55.612;37.698;2023-09-30T02:09:44;100028.75;;;17.42
75428;BMP280;64008;55.612;37.698;2023-09-30T02:12:10;100030.88;;;17.45
75428;BMP280;64008;55.612;37.698;2023-09-30T02:14:37;100022.84;;;17.35
75428;BMP280;64008;55.612;37.698;2023-09-30T02:17:04;100028.19;;;17.35
75428;BMP280;64008;55.612;37.698;2023-09-30T02:19:29;100028.19;;;17.30
75428;BMP280;64008;55.612;37.698;2023-09-30T02:21:56;100026.59;;;17.39
75428;BMP280;64008;55.612;37.698;2023-09-30T02:24:22;100030.84;;;17.20
75428;BMP280;64008;55.612;37.698;2023-09-30T02:26:48;100030.03;;;17.14
75428;BMP280;64008;55.612;37.698;2023-09-30T02:29:14;100031.91;;;17.14
75428;BMP280;64008;55.612;37.698;2023-09-30T02:31:40;100032.69;;;17.09
75428;BMP280;64008;55.612;37.698;2023-09-30T02:34:06;100031.06;;;17.08
75428;BMP280;64008;55.612;37.698;2023-09-30T02:36:33;100021.75;;;17.21
75428;BMP280;64008;55.612;37.698;2023-09-30T02:38:58;100017.50;;;17.30
75428;BMP280;64008;55.612;37.698;2023-09-30T02:41:24;100022.00;;;17.19
75428;BMP280;64008;55.612;37.698;2023-09-30T02:43:50;100020.94;;;17.05
75428;BMP280;64008;55.612;37.698;2023-09-30T02:46:15;100011.81;;;16.75
75428;BMP280;64008;55.612;37.698;2023-09-30T02:48:41;100008.31;;;16.64
75428;BMP280;64008;55.612;37.698;2023-09-30T02:51:10;100007.22;;;16.60
75428;BMP280;64008;55.612;37.698;2023-09-30T02:53:36;100007.22;;;16.60
75428;BMP280;64008;55.612;37.698;2023-09-30T02:56:02;100004.19;;;16.36
75428;BMP280;64008;55.612;37.698;2023-09-30T02:58:29;100006.81;;;16.26
75428;BMP280;64008;55.612;37.698;2023-09-30T03:00:55;100004.81;;;16.54
75428;BMP280;64008;55.612;37.698;2023-09-30T03:03:21;100004.78;;;16.49
75428;BMP280;64008;55.612;37.698;2023-09-30T03:05:47;100009.28;;;16.38
75428;BMP280;64008;55.612;37.698;2023-09-30T03:08:15;100006.28;;;16.34
75428;BMP280;64008;55.612;37.698;2023-09-30T03:10:41;100004.13;;;16.21
75428;BMP280;64008;55.612;37.698;2023-09-30T03:13:07;100004.13;;;16.26
75428;BMP280;64008;55.612;37.698;2023-09-30T03:15:35;99994.03;;;16.28
75428;BMP280;64008;55.612;37.698;2023-09-30T03:18:00;99998.00;;;16.26
75428;BMP280;64008;55.612;37.698;2023-09-30T03:20:26;99991.88;;;16.25
75428;BMP280;64008;55.612;37.698;2023-09-30T03:22:52;99998.78;;;16.21
75428;BMP280;64008;55.612;37.698;2023-09-30T03:25:19;100001.81;;;16.45
75428;BMP280;64008;55.612;37.698;2023-09-30T03:27:46;99989.69;;;16.75
75428;BMP280;64008;55.612;37.698;2023-09-30T03:30:13;100002.97;;;16.64
75428;BMP280;64008;55.612;37.698;2023-09-30T03:32:40;99999.63;;;16.27
75428;BMP280;64008;55.612;37.698;2023-09-30T03:35:08;100003.31;;;16.20
75428;BMP280;64008;55.612;37.698;2023-09-30T03:37:38;99997.38;;;16.08
75428;BMP280;64008;55.612;37.698;2023-09-30T03:40:04;99993.91;;;16.08
75428;BMP280;64008;55.612;37.698;2023-09-30T03:42:39;99992.03;;;16.03
75428;BMP280;64008;55.612;37.698;2023-09-30T03:45:08;100003.44;;;15.98
75428;BMP280;64008;55.612;37.698;2023-09-30T03:47:37;99999.97;;;15.93
75428;BMP280;64008;55.612;37.698;2023-09-30T03:50:04;99999.63;;;15.84
75428;BMP280;64008;55.612;37.698;2023-09-30T03:52:33;100009.19;;;15.80
75428;BMP280;64008;55.612;37.698;2023-09-30T03:55:02;100004.41;;;15.82
75428;BMP280;64008;55.612;37.698;2023-09-30T03:57:31;100000.97;;;15.81
75428;BMP280;64008;55.612;37.698;2023-09-30T03:59:57;100000.19;;;15.86
75428;BMP280;64008;55.612;37.698;2023-09-30T04:02:22;100000.13;;;15.81
75428;BMP280;64008;55.612;37.698;2023-09-30T04:04:48;99995.41;;;15.88
75428;BMP280;64008;55.612;37.698;2023-09-30T04:07:16;100006.56;;;15.85
75428;BMP280;64008;55.612;37.698;2023-09-30T04:09:42;99995.72;;;15.97
75428;BMP280;64008;55.612;37.698;2023-09-30T04:12:07;99998.66;;;15.95
75428;BMP280;64008;55.612;37.698;2023-09-30T04:14:33;99997.78;;;15.90
75428;BMP280;64008;55.612;37.698;2023-09-30T04:16:59;99994.19;;;16.06
75428;BMP280;64008;55.612;37.698;2023-09-30T04:19:24;99991.03;;;16.19
75428;BMP280;64008;55.612;37.698;2023-09-30T04:21:49;99989.22;;;16.30
75428;BMP280;64008;55.612;37.698;2023-09-30T04:24:15;100000.91;;;16.24
75428;BMP280;64008;55.612;37.698;2023-09-30T04:26:41;99991.97;;;16.51
75428;BMP280;64008;55.612;37.698;2023-09-30T04:29:07;99982.34;;;16.39
75428;BMP280;64008;55.612;37.698;2023-09-30T04:31:37;100000.75;;;16.41
75428;BMP280;64008;55.612;37.698;2023-09-30T04:34:04;99999.31;;;16.23
75428;BMP280;64008;55.612;37.698;2023-09-30T04:36:31;99992.13;;;16.23
75428;BMP280;64008;55.612;37.698;2023-09-30T04:38:57;100000.66;;;16.26
75428;BMP280;64008;55.612;37.698;2023-09-30T04:41:26;99998.63;;;16.38
75428;BMP280;64008;55.612;37.698;2023-09-30T04:43:52;99987.06;;;16.22
75428;BMP280;64008;55.612;37.698;2023-09-30T04:46:18;99994.06;;;16.38
75428;BMP280;64008;55.612;37.698;2023-09-30T04:48:45;99999.91;;;16.35
75428;BMP280;64008;55.612;37.698;2023-09-30T04:51:14;99994.41;;;16.62
75428;BMP280;64008;55.612;37.698;2023-09-30T04:53:41;99998.53;;;17.01
75428;BMP280;64008;55.612;37.698;2023-09-30T04:56:07;99995.00;;;16.75
75428;BMP280;64008;55.612;37.698;2023-09-30T04:58:32;100006.25;;;17.02
75428;BMP280;64008;55.612;37.698;2023-09-30T05:00:58;100003.06;;;17.11
75428;BMP280;64008;55.612;37.698;2023-09-30T05:03:24;100001.44;;;17.04
75428;BMP280;64008;55.612;37.698;2023-09-30T05:05:53;100005.75;;;17.21
75428;BMP280;64008;55.612;37.698;2023-09-30T05:08:24;99999.84;;;17.24
75428;BMP280;64008;55.612;37.698;2023-09-30T05:10:49;100000.16;;;17.12
75428;BMP280;64008;55.612;37.698;2023-09-30T05:13:15;100002.03;;;17.17
75428;BMP280;64008;55.612;37.698;2023-09-30T05:15:40;100002.53;;;17.55
75428;BMP280;64008;55.612;37.698;2023-09-30T05:18:07;99995.84;;;17.67
75428;BMP280;64008;55.612;37.698;2023-09-30T05:20:33;99993.72;;;17.69
75428;BMP280;64008;55.612;37.698;2023-09-30T05:23:02;99993.72;;;17.54
75428;BMP280;64008;55.612;37.698;2023-09-30T05:25:28;99993.16;;;17.67
75428;BMP280;64008;55.612;37.698;2023-09-30T05:27:54;99993.44;;;17.76
75428;BMP280;64008;55.612;37.698;2023-09-30T05:30:19;99992.88;;;17.74
75428;BMP280;64008;55.612;37.698;2023-09-30T05:32:46;99987.53;;;17.84
75428;BMP280;64008;55.612;37.698;2023-09-30T05:35:12;99988.53;;;17.93
75428;BMP280;64008;55.612;37.698;2023-09-30T05:37:41;99989.38;;;17.79
75428;BMP280;64008;55.612;37.698;2023-09-30T05:40:08;99993.16;;;17.83
75428;BMP280;64008;55.612;37.698;2023-09-30T05:42:45;99987.84;;;17.78
75428;BMP280;64008;55.612;37.698;2023-09-30T05:45:11;99983.78;;;17.90
75428;BMP280;64008;55.612;37.698;2023-09-30T05:47:38;99988.34;;;17.64
75428;BMP280;64008;55.612;37.698;2023-09-30T05:50:04;99986.22;;;17.77
75428;BMP280;64008;55.612;37.698;2023-09-30T05:52:33;99984.06;;;17.73
75428;BMP280;64008;55.612;37.698;2023-09-30T05:54:58;99975.75;;;17.80
75428;BMP280;64008;55.612;37.698;2023-09-30T05:57:26;99983.75;;;18.01
75428;BMP280;64008;55.612;37.698;2023-09-30T05:59:52;99977.03;;;17.98
75428;BMP280;64008;55.612;37.698;2023-09-30T06:02:18;99977.03;;;18.03
75428;BMP280;64008;55.612;37.698;2023-09-30T06:04:43;99977.50;;;18.21
75428;BMP280;64008;55.612;37.698;2023-09-30T06:07:11;99978.91;;;18.08
75428;BMP280;64008;55.612;37.698;2023-09-30T06:09:37;99965.66;;;18.32
75428;BMP280;64008;55.612;37.698;2023-09-30T06:12:03;99970.06;;;18.12
75428;BMP280;64008;55.612;37.698;2023-09-30T06:14:32;99963.13;;;18.56
75428;BMP280;64008;55.612;37.698;2023-09-30T06:16:57;99961.59;;;18.89
75428;BMP280;64008;55.612;37.698;2023-09-30T06:19:23;99964.81;;;19.26
75428;BMP280;64008;55.612;37.698;2023-09-30T06:21:51;99960.16;;;19.31
75428;BMP280;64008;55.612;37.698;2023-09-30T06:24:17;99952.84;;;18.78
75428;BMP280;64008;55.612;37.698;2023-09-30T06:26:45;99961.50;;;19.34
75428;BMP280;64008;55.612;37.698;2023-09-30T06:29:11;99949.06;;;19.43
75428;BMP280;64008;55.612;37.698;2023-09-30T06:31:37;99942.34;;;19.46
75428;BMP280;64008;55.612;37.698;2023-09-30T06:34:02;99937.56;;;19.42
75428;BMP280;64008;55.612;37.698;2023-09-30T06:36:29;99946.84;;;19.50
75428;BMP280;64008;55.612;37.698;2023-09-30T06:38:55;99934.72;;;19.82
75428;BMP280;64008;55.612;37.698;2023-09-30T06:41:20;99937.28;;;20.11
75428;BMP280;64008;55.612;37.698;2023-09-30T06:43:46;99933.88;;;20.05
75428;BMP280;64008;55.612;37.698;2023-09-30T06:46:12;99933.19;;;20.19
75428;BMP280;64008;55.612;37.698;2023-09-30T06:48:38;99932.56;;;20.03
75428;BMP280;64008;55.612;37.698;2023-09-30T06:51:05;99922.34;;;20.43
75428;BMP280;64008;55.612;37.698;2023-09-30T06:53:31;99935.47;;;20.44
75428;BMP280;64008;55.612;37.698;2023-09-30T06:55:57;99934.72;;;20.77
75428;BMP280;64008;55.612;37.698;2023-09-30T06:58:22;99938.03;;;20.68
75428;BMP280;64008;55.612;37.698;2023-09-30T07:00:52;99939.50;;;20.80
75428;BMP280;64008;55.612;37.698;2023-09-30T07:03:20;99932.38;;;21.03
75428;BMP280;64008;55.612;37.698;2023-09-30T07:05:45;99935.25;;;21.06
75428;BMP280;64008;55.612;37.698;2023-09-30T07:08:15;99929.09;;;20.92
75428;BMP280;64008;55.612;37.698;2023-09-30T07:10:41;99931.78;;;20.92
75428;BMP280;64008;55.612;37.698;2023-09-30T07:13:07;99935.34;;;21.01
75428;BMP280;64008;55.612;37.698;2023-09-30T07:15:32;99937.03;;;20.97
75428;BMP280;64008;55.612;37.698;2023-09-30T07:17:58;99938.59;;;21.17
75428;BMP280;64008;55.612;37.698;2023-09-30T07:20:23;99931.34;;;20.85
75428;BMP280;64008;55.612;37.698;2023-09-30T07:22:50;99935.78;;;21.08
75428;BMP280;64008;55.612;37.698;2023-09-30T07:25:16;99926.25;;;21.16
75428;BMP280;64008;55.612;37.698;2023-09-30T07:27:46;99930.31;;;21.27
75428;BMP280;64008;55.612;37.698;2023-09-30T07:30:14;99925.25;;;21.12
75428;BMP280;64008;55.612;37.698;2023-09-30T07:32:43;99922.84;;;21.24
75428;BMP280;64008;55.612;37.698;2023-09-30T07:35:09;99917.09;;;21.17
75428;BMP280;64008;55.612;37.698;2023-09-30T07:37:35;99913.03;;;21.33
75428;BMP280;64008;55.612;37.698;2023-09-30T07:40:01;99914.69;;;21.29
75428;BMP280;64008;55.612;37.698;2023-09-30T07:42:27;99916.50;;;21.48
75428;BMP280;64008;55.612;37.698;2023-09-30T07:44:53;99920.25;;;21.47
75428;BMP280;64008;55.612;37.698;2023-09-30T07:47:19;99904.63;;;21.35
75428;BMP280;64008;55.612;37.698;2023-09-30T07:49:45;99910.91;;;21.16
75428;BMP280;64008;55.612;37.698;2023-09-30T07:52:10;99920.16;;;21.52
75428;BMP280;64008;55.612;37.698;2023-09-30T07:54:36;99909.59;;;21.69
75428;BMP280;64008;55.612;37.698;2023-09-30T07:57:02;99919.34;;;21.79
75428;BMP280;64008;55.612;37.698;2023-09-30T07:59:27;99914.16;;;21.82
75428;BMP280;64008;55.612;37.698;2023-09-30T08:01:53;99908.16;;;21.85
75428;BMP280;64008;55.612;37.698;2023-09-30T08:04:19;99894.44;;;21.87
75428;BMP280;64008;55.612;37.698;2023-09-30T08:06:44;99906.16;;;21.91
75428;BMP280;64008;55.612;37.698;2023-09-30T08:09:13;99900.03;;;21.91
75428;BMP280;64008;55.612;37.698;2023-09-30T08:11:39;99897.38;;;21.99
75428;BMP280;64008;55.612;37.698;2023-09-30T08:14:05;99894.69;;;21.99
75428;BMP280;64008;55.612;37.698;2023-09-30T08:16:36;99891.94;;;21.91
75428;BMP280;64008;55.612;37.698;2023-09-30T08:19:02;99885.53;;;22.00
75428;BMP280;64008;55.612;37.698;2023-09-30T08:21:29;99890.03;;;21.91
75428;BMP280;64008;55.612;37.698;2023-09-30T08:23:54;99889.44;;;21.94
75428;BMP280;64008;55.612;37.698;2023-09-30T08:26:20;99891.97;;;22.13
75428;BMP280;64008;55.612;37.698;2023-09-30T08:28:45;99893.38;;;21.97
75428;BMP280;64008;55.612;37.698;2023-09-30T08:31:11;99885.53;;;22.00
75428;BMP280;64008;55.612;37.698;2023-09-30T08:33:36;99886.66;;;22.08
75428;BMP280;64008;55.612;37.698;2023-09-30T08:36:05;99879.47;;;22.17
75428;BMP280;64008;55.612;37.698;2023-09-30T08:38:38;99886.59;;;22.13
75428;BMP280;64008;55.612;37.698;2023-09-30T08:41:05;99878.41;;;22.18
75428;BMP280;64008;55.612;37.698;2023-09-30T08:43:31;99868.06;;;22.34
75428;BMP280;64008;55.612;37.698;2023-09-30T08:46:02;99875.41;;;22.42
75428;BMP280;64008;55.612;37.698;2023-09-30T08:48:32;99859.25;;;22.51
75428;BMP280;64008;55.612;37.698;2023-09-30T08:50:59;99867.84;;;22.53
75428;BMP280;64008;55.612;37.698;2023-09-30T08:53:25;99854.25;;;22.58
75428;BMP280;64008;55.612;37.698;2023-09-30T08:55:54;99867.56;;;22.63
75428;BMP280;64008;55.612;37.698;2023-09-30T08:58:26;99853.81;;;22.65
75428;BMP280;64008;55.612;37.698;2023-09-30T09:00:51;99858.63;;;22.77
75428;BMP280;64008;55.612;37.698;2023-09-30T09:03:19;99858.03;;;22.97
75428;BMP280;64008;55.612;37.698;2023-09-30T09:05:45;99855.53;;;22.92
75428;BMP280;64008;55.612;37.698;2023-09-30T09:08:11;99870.38;;;22.81
75428;BMP280;64008;55.612;37.698;2023-09-30T09:10:54;99873.22;;;22.84
75428;BMP280;64008;55.612;37.698;2023-09-30T09:13:21;99851.81;;;22.79
75428;BMP280;64008;55.612;37.698;2023-09-30T09:15:46;99843.03;;;23.05
75428;BMP280;64008;55.612;37.698;2023-09-30T09:18:15;99847.81;;;23.16
75428;BMP280;64008;55.612;37.698;2023-09-30T09:21:20;99847.97;;;23.29
75428;BMP280;64008;55.612;37.698;2023-09-30T09:23:51;99847.38;;;23.40
75428;BMP280;64008;55.612;37.698;2023-09-30T09:26:29;99848.03;;;23.55
75428;BMP280;64008;55.612;37.698;2023-09-30T09:29:05;99853.59;;;23.67
75428;BMP280;64008;55.612;37.698;2023-09-30T09:31:32;99841.50;;;23.73
75428;BMP280;64008;55.612;37.698;2023-09-30T09:34:03;99839.94;;;23.81
75428;BMP280;64008;55.612;37.698;2023-09-30T09:36:40;99829.63;;;23.92
75428;BMP280;64008;55.612;37.698;2023-09-30T09:39:07;99836.25;;;24.12
75428;BMP280;64008;55.612;37.698;2023-09-30T09:41:32;99852.63;;;24.06
75428;BMP280;64008;55.612;37.698;2023-09-30T09:43:59;99832.59;;;23.99
75428;BMP280;64008;55.612;37.698;2023-09-30T09:46:25;99828.25;;;24.33
75428;BMP280;64008;55.612;37.698;2023-09-30T09:48:53;99827.16;;;24.34
75428;BMP280;64008;55.612;37.698;2023-09-30T09:51:20;99834.28;;;24.38
75428;BMP280;64008;55.612;37.698;2023-09-30T09:53:48;99819.69;;;24.30
75428;BMP280;64008;55.612;37.698;2023-09-30T09:56:15;99836.34;;;24.41
75428;BMP280;64008;55.612;37.698;2023-09-30T09:58:43;99845.78;;;24.65
75428;BMP280;64008;55.612;37.698;2023-09-30T10:01:10;99838.38;;;24.83
75428;BMP280;64008;55.612;37.698;2023-09-30T10:03:37;99834.50;;;24.63
75428;BMP280;64008;55.612;37.698;2023-09-30T10:06:03;99819.41;;;24.62
75428;BMP280;64008;55.612;37.698;2023-09-30T10:08:42;99826.69;;;24.70
75428;BMP280;64008;55.612;37.698;2023-09-30T10:11:17;99823.97;;;24.70
75428;BMP280;64008;55.612;37.698;2023-09-30T10:13:53;99833.66;;;24.41
75428;BMP280;64008;55.612;37.698;2023-09-30T10:19:25;99828.69;;;24.43
75428;BMP280;64008;55.612;37.698;2023-09-30T10:24:55;99823.88;;;24.58
75428;BMP280;64008;55.612;37.698;2023-09-30T10:29:59;99820.56;;;24.52
75428;BMP280;64008;55.612;37.698;2023-09-30T10:36:01;99801.97;;;23.95
75428;BMP280;64008;55.612;37.698;2023-09-30T10:40:50;99838.63;;;24.69
75428;BMP280;64008;55.612;37.698;2023-09-30T10:43:38;99817.84;;;25.11
75428;BMP280;64008;55.612;37.698;2023-09-30T10:48:53;99798.91;;;25.53
75428;BMP280;64008;55.612;37.698;2023-09-30T10:51:19;99795.69;;;25.72
75428;BMP280;64008;55.612;37.698;2023-09-30T10:53:52;99786.03;;;25.83
75428;BMP280;64008;55.612;37.698;2023-09-30T10:56:22;99798.53;;;25.63
75428;BMP280;64008;55.612;37.698;2023-09-30T10:58:50;99799.47;;;25.47
75428;BMP280;64008;55.612;37.698;2023-09-30T11:01:25;99799.47;;;25.47
75428;BMP280;64008;55.612;37.698;2023-09-30T11:03:58;99777.03;;;25.46
75428;BMP280;64008;55.612;37.698;2023-09-30T11:06:24;99777.03;;;25.46
75428;BMP280;64008;55.612;37.698;2023-09-30T11:08:54;99794.38;;;25.24
75428;BMP280;64008;55.612;37.698;2023-09-30T11:11:42;99770.66;;;25.30
75428;BMP280;64008;55.612;37.698;2023-09-30T11:14:27;99770.63;;;25.51
75428;BMP280;64008;55.612;37.698;2023-09-30T11:16:55;99767.66;;;25.43
75428;BMP280;64008;55.612;37.698;2023-09-30T11:19:22;99767.66;;;25.43
75428;BMP280;64008;55.612;37.698;2023-09-30T11:21:58;99758.75;;;25.76
75428;BMP280;64008;55.612;37.698;2023-09-30T11:24:24;99766.72;;;25.60
75428;BMP280;64008;55.612;37.698;2023-09-30T11:26:53;99766.72;;;25.60
75428;BMP280;64008;55.612;37.698;2023-09-30T11:29:18;99755.03;;;25.48
75428;BMP280;64008;55.612;37.698;2023-09-30T11:31:47;99756.34;;;25.41
75428;BMP280;64008;55.612;37.698;2023-09-30T11:34:15;99763.28;;;25.30
75428;BMP280;64008;55.612;37.698;2023-09-30T11:36:51;99763.28;;;25.30
75428;BMP280;64008;55.612;37.698;2023-09-30T11:39:26;99748.84;;;25.47
75428;BMP280;64008;55.612;37.698;2023-09-30T11:41:53;99740.06;;;25.50
75428;BMP280;64008;55.612;37.698;2023-09-30T11:44:20;99740.66;;;25.68
75428;BMP280;64008;55.612;37.698;2023-09-30T11:46:55;99743.28;;;25.77
75428;BMP280;64008;55.612;37.698;2023-09-30T11:49:28;99731.19;;;25.62
75428;BMP280;64008;55.612;37.698;2023-09-30T11:51:58;99741.53;;;25.60
75428;BMP280;64008;55.612;37.698;2023-09-30T11:54:32;99732.13;;;25.78
75428;BMP280;64008;55.612;37.698;2023-09-30T11:57:02;99732.13;;;25.78
75428;BMP280;64008;55.612;37.698;2023-09-30T11:59:29;99736.22;;;25.84
75428;BMP280;64008;55.612;37.698;2023-09-30T12:01:55;99736.72;;;25.65
75428;BMP280;64008;55.612;37.698;2023-09-30T12:04:20;99727.28;;;25.96
75428;BMP280;64008;55.612;37.698;2023-09-30T12:06:47;99726.84;;;25.94
75428;BMP280;64008;55.612;37.698;2023-09-30T12:09:14;99730.78;;;25.84
75428;BMP280;64008;55.612;37.698;2023-09-30T12:11:41;99713.75;;;25.96
75428;BMP280;64008;55.612;37.698;2023-09-30T12:14:11;99713.75;;;25.96
75428;BMP280;64008;55.612;37.698;2023-09-30T12:16:37;99712.53;;;26.18
75428;BMP280;64008;55.612;37.698;2023-09-30T12:19:03;99718.81;;;26.47
75428;BMP280;64008;55.612;37.698;2023-09-30T12:21:30;99711.25;;;26.65
75428;BMP280;64008;55.612;37.698;2023-09-30T12:23:55;99714.44;;;26.42
75428;BMP280;64008;55.612;37.698;2023-09-30T12:26:21;99714.44;;;26.42
75428;BMP280;64008;55.612;37.698;2023-09-30T12:28:46;99708.88;;;26.51
75428;BMP280;64008;55.612;37.698;2023-09-30T12:31:13;99709.78;;;26.55
75428;BMP280;64008;55.612;37.698;2023-09-30T12:33:39;99703.44;;;26.63
75428;BMP280;64008;55.612;37.698;2023-09-30T12:36:05;99705.16;;;26.55
75428;BMP280;64008;55.612;37.698;2023-09-30T12:38:31;99705.16;;;26.55
75428;BMP280;64008;55.612;37.698;2023-09-30T12:40:56;99696.34;;;26.58
75428;BMP280;64008;55.612;37.698;2023-09-30T12:43:22;99706.56;;;26.25
75428;BMP280;64008;55.612;37.698;2023-09-30T12:45:48;99696.03;;;26.23
75428;BMP280;64008;55.612;37.698;2023-09-30T12:48:16;99710.78;;;26.26
75428;BMP280;64008;55.612;37.698;2023-09-30T12:50:43;99697.69;;;26.40
75428;BMP280;64008;55.612;37.698;2023-09-30T12:53:09;99691.59;;;26.43
75428;BMP280;64008;55.612;37.698;2023-09-30T12:55:35;99695.66;;;26.62
75428;BMP280;64008;55.612;37.698;2023-09-30T12:58:01;99695.66;;;26.62
75428;BMP280;64008;55.612;37.698;2023-09-30T13:00:27;99699.28;;;26.53
75428;BMP280;64008;55.612;37.698;2023-09-30T13:02:56;99681.94;;;26.70
75428;BMP280;64008;55.612;37.698;2023-09-30T13:05:21;99688.28;;;26.74
75428;BMP280;64008;55.612;37.698;2023-09-30T13:07:47;99687.25;;;26.67
75428;BMP280;64008;55.612;37.698;2023-09-30T13:10:13;99688.88;;;26.43
75428;BMP280;64008;55.612;37.698;2023-09-30T13:12:38;99681.38;;;26.24
75428;BMP280;64008;55.612;37.698;2023-09-30T13:15:05;99679.47;;;26.00
75428;BMP280;64008;55.612;37.698;2023-09-30T13:17:30;99673.44;;;25.82
75428;BMP280;64008;55.612;37.698;2023-09-30T13:19:56;99674.25;;;25.83
75428;BMP280;64008;55.612;37.698;2023-09-30T13:22:22;99662.44;;;25.87
75428;BMP280;64008;55.612;37.698;2023-09-30T13:24:48;99658.69;;;25.80
75428;BMP280;64008;55.612;37.698;2023-09-30T13:27:13;99658.69;;;25.80
75428;BMP280;64008;55.612;37.698;2023-09-30T13:29:42;99655.38;;;25.50
75428;BMP280;64008;55.612;37.698;2023-09-30T13:32:09;99656.06;;;25.47
75428;BMP280;64008;55.612;37.698;2023-09-30T13:34:35;99656.06;;;25.47
75428;BMP280;64008;55.612;37.698;2023-09-30T13:37:01;99648.94;;;25.42
75428;BMP280;64008;55.612;37.698;2023-09-30T13:39:26;99648.94;;;25.42
75428;BMP280;64008;55.612;37.698;2023-09-30T13:41:52;99649.81;;;25.34
75428;BMP280;64008;55.612;37.698;2023-09-30T13:44:18;99643.75;;;25.37
75428;BMP280;64008;55.612;37.698;2023-09-30T13:46:44;99643.75;;;25.37
75428;BMP280;64008;55.612;37.698;2023-09-30T13:49:10;99649.94;;;25.25
75428;BMP280;64008;55.612;37.698;2023-09-30T13:51:36;99645.31;;;25.26
75428;BMP280;64008;55.612;37.698;2023-09-30T13:54:04;99638.47;;;25.40
75428;BMP280;64008;55.612;37.698;2023-09-30T13:56:30;99643.69;;;25.25
75428;BMP280;64008;55.612;37.698;2023-09-30T13:58:56;99634.38;;;25.22
75428;BMP280;64008;55.612;37.698;2023-09-30T14:01:23;99632.88;;;25.25
75428;BMP280;64008;55.612;37.698;2023-09-30T14:03:48;99629.88;;;25.38
75428;BMP280;64008;55.612;37.698;2023-09-30T14:06:14;99639.94;;;25.62
75428;BMP280;64008;55.612;37.698;2023-09-30T14:08:41;99629.69;;;25.56
75428;BMP280;64008;55.612;37.698;2023-09-30T14:11:10;99629.69;;;25.68